Time;durP1;ratioP1;P1;durP2;ratioP2;P2;SDS_P1;SDS_P2;PMS_P1;PMS_P2;Temp;Humidity;BMP_temperature;BMP_pressure;BME280_temperature;BME280_humidity;BME280_pressure;Samples;Min_cycle;Max_cycle;Signal;HPM_P1;HPM_P2
2021/06/26 00:01:14;;;;;;;15.40;8.63;;;;;;;26.48;56.40;94323.84;834322;71;33119;-76
2021/06/26 00:16:09;;;;;;;20.73;7.63;;;;;;;26.42;56.84;94341.55;828470;71;29756;-80
2021/06/26 00:31:16;;;;;;;13.97;6.83;;;;;;;26.48;56.79;94343.46;833935;71;32679;-77
2021/06/26 00:46:08;;;;;;;17.60;7.30;;;;;;;;;;828478;71;30350;-75
2021/06/26 01:01:14;;;;;;;12.33;7.43;;;;;;;;;;834096;71;33475;-78
2021/06/26 01:16:14;;;;;;;18.90;7.80;;;;;;;26.51;55.97;94284.04;827877;71;33530;-78
2021/06/26 01:31:08;;;;;;;14.87;7.73;;;;;;;;;;828657;71;30275;-76
2021/06/26 01:46:08;;;;;;;16.90;8.77;;;;;;;25.65;61.00;94303.25;829644;71;29734;-77
2021/06/26 02:01:08;;;;;;;17.67;8.70;;;;;;;25.04;63.56;94330.20;834393;71;29724;-78
2021/06/26 02:16:08;;;;;;;15.17;8.17;;;;;;;24.87;64.90;94346.51;830241;71;29728;-76
2021/06/26 02:31:09;;;;;;;17.33;8.03;;;;;;;25.07;64.26;94349.00;828481;71;30811;-77
2021/06/26 02:46:08;;;;;;;15.33;8.17;;;;;;;25.23;63.28;94315.66;828405;71;30165;-76
2021/06/26 03:16:13;;;;;;;16.00;7.80;;;;;;;25.13;63.38;94309.11;828512;71;32027;-78
2021/06/26 03:31:15;;;;;;;17.43;8.57;;;;;;;24.97;63.67;94308.91;827753;71;31800;-78
2021/06/26 03:46:18;;;;;;;13.67;8.87;;;;;;;25.41;62.47;94308.91;828537;71;31746;-75
2021/06/26 04:01:09;;;;;;;13.60;8.13;;;;;;;26.15;61.14;94338.05;828489;71;29254;-76
2021/06/26 04:16:08;;;;;;;21.50;9.43;;;;;;;;;;828875;71;29252;-78
2021/06/26 04:31:18;;;;;;;21.27;8.87;;;;;;;28.52;53.88;94354.88;827665;71;32312;-77
2021/06/26 04:46:15;;;;;;;18.60;9.20;;;;;;;29.20;51.99;94348.49;827711;71;31842;-76
2021/06/26 05:01:15;;;;;;;14.97;8.60;;;;;;;29.46;49.91;94360.98;829369;71;30741;-85
2021/06/26 05:16:09;;;;;;;23.67;9.57;;;;;;;28.69;52.93;94363.33;829155;71;28276;-85
2021/06/26 05:31:12;;;;;;;19.63;8.37;;;;;;;28.88;53.51;94353.78;828880;71;29415;-82
2021/06/26 05:46:19;;;;;;;18.77;9.00;;;;;;;29.40;51.54;94368.04;827692;71;32249;-79
2021/06/26 06:01:13;;;;;;;25.90;10.77;;;;;;;29.07;52.61;94375.29;826928;71;27719;-82
2021/06/26 06:16:15;;;;;;;16.40;10.13;;;;;;;27.94;56.33;94359.63;828279;71;31767;-79
2021/06/26 06:31:09;;;;;;;20.30;10.20;;;;;;;27.95;55.96;94361.73;818066;71;28333;-78
2021/06/26 06:46:22;;;;;;;24.03;9.87;;;;;;;28.32;53.74;94353.37;824087;71;31873;-79
2021/06/26 07:01:10;;;;;;;21.43;9.93;;;;;;;28.70;51.97;94343.83;821650;71;31998;-77
2021/06/26 07:16:18;;;;;;;16.17;8.50;;;;;;;29.10;49.41;94343.41;826750;71;32778;-79
2021/06/26 07:31:14;;;;;;;15.70;8.07;;;;;;;30.33;46.64;94340.06;824790;71;32855;-79
2021/06/26 07:46:17;;;;;;;13.67;7.67;;;;;;;31.51;43.10;94339.30;821202;71;32923;-78
2021/06/26 08:01:08;;;;;;;13.53;6.67;;;;;;;32.25;39.66;94336.34;819934;71;29761;-79
2021/06/26 08:16:28;;;;;;;17.17;5.80;;;;;;;33.43;35.25;94333.92;821165;71;32511;-80
2021/06/26 08:31:08;;;;;;;12.57;4.93;;;;;;;33.83;31.53;94329.29;818935;71;30136;-78
2021/06/26 08:46:14;;;;;;;10.20;4.43;;;;;;;34.66;30.75;94331.17;818594;71;32622;-79
2021/06/26 09:16:11;;;;;;;6.73;4.17;;;;;;;35.39;29.76;94313.48;816055;71;30427;-79
2021/06/26 09:31:21;;;;;;;12.00;4.80;;;;;;;35.57;29.39;94300.45;818465;70;32814;-77
2021/06/26 09:46:20;;;;;;;13.77;4.87;;;;;;;36.32;28.38;94288.98;820770;71;33167;-81
2021/06/26 10:01:09;;;;;;;11.10;4.33;;;;;;;36.76;27.41;94283.66;831988;70;29300;-83
2021/06/26 10:16:21;;;;;;;10.83;4.80;;;;;;;37.02;26.86;94265.56;820577;71;31908;-77
2021/06/26 10:31:33;;;;;;;8.83;3.93;;;;;;;36.92;25.59;94257.27;830775;71;31790;-82
2021/06/26 10:46:15;;;;;;;9.20;3.80;;;;;;;36.10;27.63;94246.20;828508;71;29417;-77
2021/06/26 11:01:28;;;;;;;14.53;4.50;;;;;;;36.65;27.44;94239.05;834186;71;31844;-78
2021/06/26 11:16:32;;;;;;;15.03;4.50;;;;;;;36.63;26.24;94216.87;834108;71;31880;-79
2021/06/26 11:31:36;;;;;;;12.90;4.80;;;;;;;36.63;26.74;94203.95;829469;71;31929;-80
2021/06/26 11:46:20;;;;;;;11.43;4.17;;;;;;;36.96;25.98;94182.61;827651;71;32261;-76
2021/06/26 12:01:17;;;;;;;10.70;4.50;;;;;;;36.38;25.97;94159.28;828168;71;31225;-77
2021/06/26 12:16:32;;;;;;;19.37;5.33;;;;;;;35.77;25.28;94126.58;857212;68;32208;-78
2021/06/26 12:31:10;;;;;;;13.40;4.20;;;;;;;34.87;26.55;94080.79;824997;71;29371;-77
2021/06/26 12:46:17;;;;;;;10.10;4.60;;;;;;;33.24;29.68;94082.77;819160;71;32696;-77
2021/06/26 13:01:14;;;;;;;16.27;5.53;;;;;;;32.41;33.78;94131.77;835700;71;31744;-78
2021/06/26 13:16:14;;;;;;;16.50;5.77;;;;;;;31.41;52.25;94157.23;829463;71;31759;-79
2021/06/26 13:31:09;;;;;;;14.00;6.50;;;;;;;30.98;55.84;94115.02;834266;71;29263;-76
2021/06/26 13:46:13;;;;;;;17.07;7.07;;;;;;;30.46;56.10;94145.78;828568;71;28814;-78
2021/06/26 14:01:19;;;;;;;20.17;6.43;;;;;;;29.89;55.83;94116.14;834299;71;32285;-78
2021/06/26 14:16:09;;;;;;;11.73;5.40;;;;;;;29.62;53.54;94089.88;818275;71;30157;-78
2021/06/26 14:31:14;;;;;;;15.77;5.53;;;;;;;29.29;54.79;94077.05;821322;71;31922;-78
2021/06/26 14:46:13;;;;;;;13.40;4.80;;;;;;;29.13;54.76;94041.27;820449;71;31416;-76
2021/06/26 15:16:19;;;;;;;8.93;5.43;;;;;;;29.68;52.61;94003.73;820785;71;32326;-77
2021/06/26 15:31:59;;;;;;;18.37;8.13;;;;;;;29.62;56.45;94053.36;829990;69;31660;-76
2021/06/26 15:46:09;;;;;;;14.30;7.63;;;;;;;29.38;57.55;94145.43;820581;71;29345;-81
2021/06/26 16:01:20;;;;;;;9.40;4.87;;;;;;;28.30;53.28;94438.80;821379;70;31863;-82
2021/06/26 16:16:18;;;;;;;6.13;3.80;;;;;;;26.55;57.22;94535.09;821052;71;31769;-83
2021/06/26 16:31:09;;;;;;;11.70;4.17;;;;;;;23.73;63.67;94403.94;820848;71;29064;-75
2021/06/26 16:46:16;;;;;;;8.07;4.80;;;;;;;22.09;69.03;94371.28;793473;74;32035;-79
2021/06/26 17:01:22;;;;;;;7.97;4.07;;;;;;;21.69;70.50;94313.92;818574;71;31758;-78
2021/06/26 17:16:13;;;;;;;7.80;3.40;;;;;;;21.59;66.45;94292.66;828273;71;29309;-79
2021/06/26 17:31:33;;;;;;;13.07;3.73;;;;;;;21.96;67.05;94259.87;824584;71;31702;-81
2021/06/26 17:46:09;;;;;;;6.85;4.10;;;;;;;21.70;65.44;94227.91;834191;71;28672;-79
2021/06/26 18:01:17;;;;;;;6.83;3.58;;;;;;;21.78;62.40;94226.86;824289;71;32253;-76
2021/06/26 18:16:08;;;;;;;7.70;3.10;;;;;;;22.65;61.80;94280.56;828261;71;28737;-77
2021/06/26 18:46:15;;;;;;;6.30;3.63;;;;;;;24.88;57.66;94343.45;821500;71;31882;-79
2021/06/26 19:01:20;;;;;;;6.97;3.30;;;;;;;25.49;55.55;94377.02;827978;71;31717;-80
2021/06/26 19:16:19;;;;;;;8.03;3.97;;;;;;;25.73;55.41;94398.28;820353;71;32504;-81
2021/06/26 19:31:09;;;;;;;7.83;3.87;;;;;;;25.98;55.51;94388.83;827622;71;29395;-78
2021/06/26 19:46:08;;;;;;;8.33;4.10;;;;;;;;;;821551;71;28626;-81
2021/06/26 20:01:15;;;;;;;9.60;4.50;;;;;;;26.05;55.79;94401.48;829134;71;32288;-78
2021/06/26 20:16:10;;;;;;;5.30;4.30;;;;;;;25.98;56.45;94393.45;823772;71;28782;-79
2021/06/26 22:16:24;;;;;;;7.43;5.30;;;;;;;21.59;68.86;94464.89;834934;71;31598;-80
2021/06/26 22:31:34;;;;;;;;;;;;;;;;;;;;;
2021/06/26 23:46:16;;;;;;;11.73;5.90;;;;;;;21.19;73.54;94451.45;829359;71;31847;-83
